createdAt,value
2019-02-09T00:00:16.390Z,8.44
2019-02-09T00:02:46.283Z,8.44
2019-02-09T00:05:19.299Z,8.43
2019-02-09T00:07:47.190Z,8.42
2019-02-09T00:10:30.251Z,8.44
2019-02-09T00:13:10.124Z,8.42
2019-02-09T00:15:37.947Z,8.40
2019-02-09T00:18:13.634Z,8.41
2019-02-09T00:21:07.726Z,8.43
2019-02-09T00:23:35.425Z,8.43
2019-02-09T00:26:02.880Z,8.47
2019-02-09T00:28:42.646Z,8.48
2019-02-09T00:31:14.241Z,8.48
2019-02-09T00:33:42.147Z,8.48
2019-02-09T00:36:13.873Z,8.38
2019-02-09T00:38:50.431Z,8.27
2019-02-09T00:41:20.534Z,8.13
2019-02-09T00:43:48.066Z,8.01
2019-02-09T00:46:15.576Z,7.91
2019-02-09T00:48:43.229Z,7.79
2019-02-09T00:51:13.966Z,7.81
2019-02-09T00:53:41.530Z,7.81
2019-02-09T00:56:08.917Z,7.76
2019-02-09T00:58:36.386Z,7.75
2019-02-09T01:01:03.886Z,7.84
2019-02-09T01:03:31.381Z,7.81
2019-02-09T01:05:58.836Z,7.82
2019-02-09T01:08:26.406Z,7.84
2019-02-09T01:10:53.966Z,7.79
2019-02-09T01:13:24.461Z,7.74
2019-02-09T01:15:51.847Z,7.65
2019-02-09T01:18:19.302Z,7.62
2019-02-09T01:20:46.682Z,7.61
2019-02-09T01:23:14.134Z,7.59
2019-02-09T01:25:41.511Z,7.62
2019-02-09T01:28:08.951Z,7.45
2019-02-09T01:30:36.347Z,7.37
2019-02-09T01:33:03.871Z,7.37
2019-02-09T01:35:31.241Z,7.28
2019-02-09T01:37:58.670Z,7.23
2019-02-09T01:40:26.283Z,7.17
2019-02-09T01:42:53.973Z,7.11
2019-02-09T01:45:23.410Z,7.09
2019-02-09T01:47:50.777Z,7.07
2019-02-09T01:50:18.711Z,7.00
2019-02-09T01:52:46.081Z,6.98
2019-02-09T01:55:14.147Z,6.94
2019-02-09T01:57:41.641Z,6.89
2019-02-09T02:00:17.578Z,6.95
2019-02-09T02:02:45.260Z,6.89
2019-02-09T02:05:15.180Z,6.84
2019-02-09T02:07:42.681Z,6.82
2019-02-09T02:10:14.601Z,6.82
2019-02-09T02:12:41.961Z,6.80
2019-02-09T02:15:12.350Z,6.81
2019-02-09T02:17:39.747Z,6.78
2019-02-09T02:20:09.831Z,6.73
2019-02-09T02:22:37.210Z,6.70
2019-02-09T02:25:05.221Z,6.71
2019-02-09T02:27:32.561Z,6.65
2019-02-09T02:30:00.016Z,6.62
2019-02-09T02:32:27.426Z,6.69
2019-02-09T02:34:54.851Z,6.66
2019-02-09T02:37:22.226Z,6.67
2019-02-09T02:39:49.647Z,6.70
2019-02-09T02:42:17.008Z,6.73
2019-02-09T02:44:44.490Z,6.71
2019-02-09T02:47:11.872Z,6.76
2019-02-09T02:49:39.267Z,6.78
2019-02-09T02:52:06.906Z,6.75
2019-02-09T02:54:34.337Z,6.74
2019-02-09T02:57:01.715Z,6.75
2019-02-09T02:59:29.126Z,6.69
2019-02-09T03:01:56.511Z,6.63
2019-02-09T03:04:23.948Z,6.64
2019-02-09T03:07:00.198Z,6.55
2019-02-09T03:09:32.932Z,6.54
2019-02-09T03:12:03.627Z,6.51
2019-02-09T03:14:41.714Z,6.45
2019-02-09T03:17:21.908Z,6.45
2019-02-09T03:19:57.179Z,6.40
2019-02-09T03:22:42.431Z,6.42
2019-02-09T03:25:23.415Z,6.38
2019-02-09T03:28:06.875Z,6.40
2019-02-09T03:30:30.241Z,6.39
2019-02-09T03:32:58.998Z,6.36
2019-02-09T03:35:26.745Z,6.39
2019-02-09T03:37:54.270Z,6.37
2019-02-09T03:40:22.977Z,6.37
2019-02-09T03:42:50.465Z,6.38
2019-02-09T03:45:20.377Z,6.38
2019-02-09T03:47:48.457Z,6.38
2019-02-09T03:50:16.385Z,6.40
2019-02-09T03:52:43.808Z,6.43
2019-02-09T03:55:11.420Z,6.41
2019-02-09T03:57:38.967Z,6.42
2019-02-09T04:00:09.476Z,6.44
2019-02-09T04:02:36.836Z,6.43
2019-02-09T04:05:05.231Z,6.44
2019-02-09T04:07:32.641Z,6.48
2019-02-09T04:10:00.242Z,6.43
2019-02-09T04:12:27.591Z,6.43
2019-02-09T04:14:55.002Z,6.48
2019-02-09T04:17:22.379Z,6.50
2019-02-09T04:19:49.792Z,6.48
2019-02-09T04:22:17.171Z,6.56
2019-02-09T04:24:44.581Z,6.60
2019-02-09T04:27:11.947Z,6.71
2019-02-09T04:29:39.388Z,6.71
2019-02-09T04:32:06.812Z,6.72
2019-02-09T04:34:34.184Z,6.70
2019-02-09T04:37:01.612Z,6.69
2019-02-09T04:39:29.021Z,6.66
2019-02-09T04:41:56.464Z,6.71
2019-02-09T04:44:23.849Z,6.70
2019-02-09T04:46:51.257Z,6.80
2019-02-09T04:49:18.738Z,6.81
2019-02-09T04:51:46.187Z,6.81
2019-02-09T04:54:13.540Z,6.85
2019-02-09T04:56:40.996Z,6.88
2019-02-09T04:59:08.361Z,6.83
2019-02-09T05:01:35.788Z,6.80
2019-02-09T05:04:03.280Z,6.86
2019-02-09T05:06:30.726Z,6.89
2019-02-09T05:08:58.166Z,6.90
2019-02-09T05:11:25.606Z,6.96
2019-02-09T05:13:52.982Z,7.02
2019-02-09T05:16:20.411Z,7.08
2019-02-09T05:18:47.820Z,7.13
2019-02-09T05:21:15.230Z,7.12
2019-02-09T05:23:42.619Z,7.11
2019-02-09T05:26:10.051Z,7.14
2019-02-09T05:28:37.466Z,7.18
2019-02-09T05:31:04.910Z,7.17
2019-02-09T05:33:32.281Z,7.17
2019-02-09T05:35:59.706Z,7.17
2019-02-09T05:38:27.112Z,7.23
2019-02-09T05:40:54.933Z,7.24
2019-02-09T05:43:22.315Z,7.23
2019-02-09T05:45:49.713Z,7.26
2019-02-09T05:48:17.086Z,7.24
2019-02-09T05:50:44.513Z,7.31
2019-02-09T05:53:11.895Z,7.37
2019-02-09T05:55:39.322Z,7.36
2019-02-09T05:58:06.706Z,7.30
2019-02-09T06:00:42.930Z,7.32
2019-02-09T06:03:10.312Z,7.26
2019-02-09T06:05:37.794Z,7.32
2019-02-09T06:08:05.243Z,7.33
2019-02-09T06:10:32.681Z,7.42
2019-02-09T06:13:00.117Z,7.44
2019-02-09T06:15:28.323Z,7.45
2019-02-09T06:17:56.062Z,7.43
2019-02-09T06:20:24.515Z,7.42
2019-02-09T06:22:52.307Z,7.46
2019-02-09T06:25:19.687Z,7.48
2019-02-09T06:27:47.207Z,7.51
2019-02-09T06:30:17.521Z,7.51
2019-02-09T06:32:44.946Z,7.51
2019-02-09T06:35:12.431Z,7.51
2019-02-09T06:37:40.161Z,7.50
2019-02-09T06:40:08.675Z,7.47
2019-02-09T06:42:36.100Z,7.42
2019-02-09T06:45:05.026Z,7.45
2019-02-09T06:47:32.448Z,7.41
2019-02-09T06:49:59.846Z,7.39
2019-02-09T06:52:27.289Z,7.37
2019-02-09T06:54:54.665Z,7.33
2019-02-09T06:57:22.100Z,7.34
2019-02-09T06:59:49.440Z,7.33
2019-02-09T07:02:16.866Z,7.31
2019-02-09T07:04:44.240Z,7.30
2019-02-09T07:07:11.686Z,7.38
2019-02-09T07:09:39.111Z,7.38
2019-02-09T07:12:06.665Z,7.38
2019-02-09T07:14:34.045Z,7.39
2019-02-09T07:17:01.491Z,7.41
2019-02-09T07:19:28.886Z,7.46
2019-02-09T07:21:57.391Z,7.48
2019-02-09T07:24:24.745Z,7.48
2019-02-09T07:26:52.196Z,7.52
2019-02-09T07:29:19.576Z,7.53
2019-02-09T07:31:56.374Z,7.60
2019-02-09T07:34:21.152Z,7.57
2019-02-09T07:36:56.481Z,7.61
2019-02-09T07:39:31.704Z,7.62
2019-02-09T07:41:59.205Z,7.66
2019-02-09T07:44:28.745Z,7.83
2019-02-09T07:46:59.809Z,7.90
2019-02-09T07:49:32.559Z,7.92
2019-02-09T07:52:12.151Z,7.91
2019-02-09T07:54:40.936Z,7.99
2019-02-09T07:57:11.186Z,8.00
2019-02-09T07:59:38.686Z,8.15
2019-02-09T08:02:10.800Z,8.11
2019-02-09T08:04:41.219Z,8.06
2019-02-09T08:07:09.041Z,8.07
2019-02-09T08:09:36.542Z,8.04
2019-02-09T08:12:06.194Z,7.99
2019-02-09T08:14:33.821Z,7.77
2019-02-09T08:17:03.051Z,7.75
2019-02-09T08:19:33.775Z,7.76
2019-02-09T08:22:11.126Z,8.05
2019-02-09T08:24:57.344Z,8.36
2019-02-09T08:27:24.897Z,8.63
2019-02-09T08:30:02.551Z,8.79
2019-02-09T08:32:32.391Z,8.75
2019-02-09T08:34:59.821Z,8.58
2019-02-09T08:37:27.389Z,8.42
2019-02-09T08:39:54.886Z,8.39
2019-02-09T08:42:22.346Z,8.41
2019-02-09T08:44:49.944Z,8.50
2019-02-09T08:47:17.517Z,8.69
2019-02-09T08:49:45.071Z,8.77
2019-02-09T08:52:16.826Z,8.72
2019-02-09T08:54:44.221Z,8.62
2019-02-09T08:57:11.891Z,8.62
2019-02-09T08:59:39.339Z,8.45
2019-02-09T09:02:06.921Z,8.54
2019-02-09T09:04:34.392Z,8.46
2019-02-09T09:07:02.064Z,8.54
2019-02-09T09:09:29.656Z,8.52
2019-02-09T09:11:57.169Z,8.52
2019-02-09T09:14:24.720Z,8.32
2019-02-09T09:16:52.156Z,8.27
2019-02-09T09:19:19.766Z,8.23
2019-02-09T09:21:47.201Z,8.34
2019-02-09T09:24:14.676Z,8.38
2019-02-09T09:26:42.081Z,8.39
2019-02-09T09:29:09.604Z,8.53
2019-02-09T09:31:37.161Z,8.75
2019-02-09T09:34:04.709Z,8.81
2019-02-09T09:36:32.351Z,8.77
2019-02-09T09:38:59.771Z,8.75
2019-02-09T09:41:27.149Z,8.88
2019-02-09T09:43:54.589Z,8.91
2019-02-09T09:46:21.971Z,8.85
2019-02-09T09:48:49.416Z,8.86
2019-02-09T09:51:16.811Z,8.71
2019-02-09T09:53:44.226Z,8.86
2019-02-09T09:56:11.606Z,8.92
2019-02-09T09:58:39.037Z,8.97
2019-02-09T10:01:06.391Z,8.92
2019-02-09T10:03:33.851Z,8.87
2019-02-09T10:06:01.244Z,8.76
2019-02-09T10:08:28.726Z,8.76
2019-02-09T10:10:56.111Z,8.93
2019-02-09T10:13:23.520Z,8.87
2019-02-09T10:15:52.462Z,8.83
2019-02-09T10:18:22.714Z,8.89
2019-02-09T10:20:50.104Z,9.03
2019-02-09T10:23:17.755Z,8.90
2019-02-09T10:25:45.147Z,8.89
2019-02-09T10:28:15.491Z,8.91
2019-02-09T10:30:43.069Z,9.00
2019-02-09T10:33:10.710Z,9.00
2019-02-09T10:35:38.265Z,8.94
2019-02-09T10:38:05.670Z,8.83
2019-02-09T10:40:33.593Z,8.69
2019-02-09T10:43:01.886Z,8.45
2019-02-09T10:45:33.802Z,8.35
2019-02-09T10:48:01.305Z,8.16
2019-02-09T10:50:38.596Z,8.06
2019-02-09T10:53:06.534Z,8.06
2019-02-09T10:55:34.366Z,8.20
2019-02-09T10:58:01.812Z,8.39
2019-02-09T11:00:38.470Z,8.47
2019-02-09T11:03:06.690Z,8.58
2019-02-09T11:05:34.117Z,8.83
2019-02-09T11:08:01.615Z,9.09
2019-02-09T11:10:29.224Z,9.27
2019-02-09T11:12:56.616Z,9.15
2019-02-09T11:15:24.283Z,9.18
2019-02-09T11:17:51.830Z,9.26
2019-02-09T11:20:19.396Z,9.27
2019-02-09T11:22:47.025Z,9.41
2019-02-09T11:25:15.400Z,9.50
2019-02-09T11:27:42.775Z,9.41
2019-02-09T11:30:15.840Z,9.32
2019-02-09T11:32:43.210Z,9.37
2019-02-09T11:35:11.064Z,9.34
2019-02-09T11:37:38.480Z,9.36
2019-02-09T11:40:06.555Z,9.43
2019-02-09T11:42:34.044Z,9.47
2019-02-09T11:45:01.482Z,9.37
2019-02-09T11:47:28.966Z,9.56
2019-02-09T11:49:56.464Z,9.53
2019-02-09T11:52:23.935Z,9.58
2019-02-09T11:54:51.377Z,9.93
2019-02-09T11:57:18.836Z,10.03
2019-02-09T11:59:46.300Z,10.04
2019-02-09T12:02:13.699Z,10.10
2019-02-09T12:04:41.225Z,9.80
2019-02-09T12:07:08.699Z,9.83
2019-02-09T12:09:36.110Z,9.78
2019-02-09T12:12:03.956Z,9.74
2019-02-09T12:14:31.345Z,9.87
2019-02-09T12:16:58.875Z,9.85
2019-02-09T12:19:26.271Z,9.77
2019-02-09T12:21:53.825Z,9.78
2019-02-09T12:24:21.294Z,9.75
2019-02-09T12:26:48.745Z,9.78
2019-02-09T12:29:16.147Z,9.87
2019-02-09T12:31:43.795Z,9.76
2019-02-09T12:34:11.310Z,9.72
2019-02-09T12:36:38.770Z,9.62
2019-02-09T12:39:08.685Z,9.65
2019-02-09T12:41:36.504Z,9.61
2019-02-09T12:44:04.565Z,9.48
2019-02-09T12:46:32.350Z,9.43
2019-02-09T12:48:59.851Z,9.45
2019-02-09T12:51:35.341Z,9.46
2019-02-09T12:54:05.283Z,9.43
2019-02-09T12:56:32.886Z,9.53
2019-02-09T12:59:06.235Z,9.65
2019-02-09T13:01:34.221Z,9.71
2019-02-09T13:04:01.635Z,9.79
2019-02-09T13:06:29.392Z,9.90
2019-02-09T13:08:57.165Z,9.80
2019-02-09T13:11:24.925Z,9.85
2019-02-09T13:13:52.504Z,9.93
2019-02-09T13:16:20.210Z,9.88
2019-02-09T13:18:47.650Z,9.87
2019-02-09T13:21:15.500Z,9.91
2019-02-09T13:23:42.995Z,9.83
2019-02-09T13:26:10.659Z,9.80
2019-02-09T13:28:38.314Z,9.75
2019-02-09T13:31:05.930Z,9.81
2019-02-09T13:33:39.051Z,9.83
2019-02-09T13:36:07.868Z,9.84
2019-02-09T13:38:35.940Z,9.80
2019-02-09T13:41:48.115Z,9.82
2019-02-09T13:44:16.015Z,9.81
2019-02-09T13:46:43.945Z,9.76
2019-02-09T13:49:11.525Z,9.74
2019-02-09T13:51:39.045Z,9.67
2019-02-09T13:54:06.733Z,9.72
2019-02-09T13:56:34.190Z,9.64
2019-02-09T13:59:01.775Z,9.60
2019-02-09T14:01:29.279Z,9.48
2019-02-09T14:04:37.548Z,9.39
2019-02-09T14:09:54.480Z,9.15
2019-02-09T14:13:14.270Z,9.04
2019-02-09T14:15:50.535Z,8.97
2019-02-09T14:18:18.294Z,8.83
2019-02-09T14:20:48.005Z,8.87
2019-02-09T14:23:18.974Z,8.83
2019-02-09T14:25:48.161Z,8.82
2019-02-09T14:28:24.908Z,8.81
2019-02-09T14:30:59.843Z,8.82
2019-02-09T14:33:39.103Z,8.79
2019-02-09T14:36:07.425Z,8.78
2019-02-09T14:38:53.615Z,8.81
2019-02-09T14:41:31.295Z,8.87
2019-02-09T14:44:09.602Z,8.95
2019-02-09T14:46:37.345Z,9.00
2019-02-09T14:49:05.289Z,8.91
2019-02-09T14:51:51.685Z,8.95
2019-02-09T14:54:47.389Z,9.01
2019-02-09T14:57:45.075Z,9.01
2019-02-09T15:00:30.975Z,8.99
2019-02-09T15:03:14.915Z,9.01
2019-02-09T15:05:42.761Z,9.03
2019-02-09T15:08:33.989Z,9.14
2019-02-09T15:11:03.971Z,9.10
2019-02-09T15:16:55.758Z,9.01
2019-02-09T15:19:40.622Z,8.96
2019-02-09T15:22:38.703Z,8.91
2019-02-09T15:25:07.946Z,8.92
2019-02-09T15:28:03.951Z,8.92
2019-02-09T15:30:39.456Z,8.93
2019-02-09T15:38:16.203Z,8.95
2019-02-09T15:41:52.742Z,8.85
2019-02-09T15:43:29.862Z,8.82
2019-02-09T15:50:05.160Z,8.81
2019-02-09T15:53:10.213Z,8.77
2019-02-09T15:55:46.317Z,8.77
2019-02-09T15:58:37.492Z,8.76
2019-02-09T16:01:56.433Z,8.75
2019-02-09T16:08:16.012Z,8.71
2019-02-09T16:11:03.529Z,8.72
2019-02-09T16:13:45.555Z,8.61
2019-02-09T16:16:37.982Z,8.54
2019-02-09T16:19:12.408Z,8.45
2019-02-09T16:21:55.078Z,8.34
2019-02-09T16:24:54.040Z,8.25
2019-02-09T16:28:00.612Z,8.17
2019-02-09T16:30:52.012Z,8.11
2019-02-09T16:33:29.891Z,8.06
2019-02-09T16:36:23.217Z,8.03
2019-02-09T16:38:54.603Z,7.98
2019-02-09T16:41:55.548Z,7.92
2019-02-09T16:44:30.771Z,7.91
2019-02-09T16:48:03.746Z,7.83
2019-02-09T16:54:09.398Z,7.73
2019-02-09T16:58:06.369Z,7.70
2019-02-09T17:00:59.900Z,7.67
2019-02-09T17:03:39.010Z,7.62
2019-02-09T17:06:41.126Z,7.55
2019-02-09T17:09:11.217Z,7.54
2019-02-09T17:12:35.165Z,7.49
2019-02-09T17:17:44.654Z,7.43
2019-02-09T17:19:12.411Z,7.42
2019-02-09T17:25:34.343Z,7.28
2019-02-09T17:28:59.396Z,7.30
2019-02-09T17:31:36.033Z,7.31
2019-02-09T17:34:30.935Z,7.27
2019-02-09T17:37:37.303Z,7.33
2019-02-09T17:40:14.613Z,7.41
2019-02-09T17:43:24.092Z,7.46
2019-02-09T17:54:01.390Z,7.44
2019-02-09T17:57:03.874Z,7.40
2019-02-09T18:07:20.439Z,7.38
2019-02-09T18:10:50.285Z,7.33
2019-02-09T18:25:57.337Z,7.32
2019-02-09T18:28:43.856Z,7.32
2019-02-09T18:32:00.305Z,7.38
2019-02-09T18:35:56.115Z,7.41
2019-02-09T18:47:03.541Z,7.49
2019-02-09T18:49:17.141Z,7.48
2019-02-09T18:53:14.874Z,7.52
2019-02-09T18:55:19.635Z,7.57
2019-02-09T18:57:49.926Z,7.62
2019-02-09T19:01:29.052Z,7.70
2019-02-09T19:04:37.581Z,7.76
2019-02-09T19:07:19.690Z,7.80
2019-02-09T19:10:05.351Z,7.81
2019-02-09T19:13:21.165Z,7.80
2019-02-09T19:27:25.389Z,7.76
2019-02-09T19:30:28.460Z,7.68
2019-02-09T19:33:54.726Z,7.62
2019-02-09T19:37:00.629Z,7.55
2019-02-09T19:40:31.241Z,7.52
2019-02-09T19:57:59.590Z,7.41
2019-02-09T20:00:39.266Z,7.50
2019-02-09T20:12:07.837Z,7.77
2019-02-09T20:21:59.454Z,7.82
2019-02-09T20:24:47.433Z,7.76
2019-02-09T20:45:26.321Z,7.76
2019-02-09T20:48:43.625Z,7.80
2019-02-09T20:52:26.036Z,7.84
2019-02-09T20:56:22.040Z,7.88
2019-02-09T21:02:54.256Z,7.95
2019-02-09T21:05:23.074Z,7.94
2019-02-09T21:19:15.513Z,7.95
2019-02-09T21:33:52.549Z,7.92
2019-02-09T21:41:41.397Z,7.92
2019-02-09T22:02:21.059Z,7.95
2019-02-09T22:09:44.943Z,7.95
2019-02-09T22:12:28.689Z,7.97
2019-02-09T22:26:32.726Z,7.81
2019-02-09T22:29:53.401Z,7.81
2019-02-09T22:40:07.668Z,7.78
2019-02-09T22:43:29.788Z,7.73
2019-02-09T22:46:12.220Z,7.79
2019-02-09T22:49:56.793Z,7.81
2019-02-09T23:05:24.048Z,7.67
2019-02-09T23:08:46.212Z,7.62
2019-02-09T23:11:33.519Z,7.59
2019-02-09T23:18:46.104Z,7.56
2019-02-09T23:26:31.245Z,7.55
